Time;durP1;ratioP1;P1;durP2;ratioP2;P2;SDS_P1;SDS_P2;PMS_P1;PMS_P2;Temp;Humidity;BMP_temperature;BMP_pressure;BME280_temperature;BME280_humidity;BME280_pressure;Samples;Min_cycle;Max_cycle;Signal;HPM_P1;HPM_P2
2022/07/16 00:03:09;;;;;;;29.50;6.32;;;;;;;14.06;100.00;98351.03;5060117;28;20517;-58
2022/07/16 00:05:34;;;;;;;29.20;6.35;;;;;;;13.93;100.00;98356.94;5059765;28;20040;-60
2022/07/16 00:08:00;;;;;;;37.63;7.13;;;;;;;13.75;100.00;98354.31;5060342;28;20028;-59
2022/07/16 00:10:26;;;;;;;32.92;6.65;;;;;;;13.83;100.00;98349.53;5058804;28;20399;-60
2022/07/16 00:12:51;;;;;;;34.97;6.95;;;;;;;13.84;100.00;98352.97;5060282;28;20024;-59
2022/07/16 00:15:17;;;;;;;32.40;6.20;;;;;;;13.88;100.00;98354.56;5060445;28;20070;-58
2022/07/16 00:17:42;;;;;;;35.95;6.78;;;;;;;13.73;100.00;98350.03;5063886;28;20174;-59
2022/07/16 00:20:08;;;;;;;49.53;7.90;;;;;;;13.77;100.00;98346.38;5062390;28;20033;-59
2022/07/16 00:22:33;;;;;;;37.60;6.90;;;;;;;13.87;100.00;98347.59;5063270;28;20107;-58
2022/07/16 00:24:59;;;;;;;33.67;7.00;;;;;;;13.84;100.00;98347.75;5064396;28;20032;-58
2022/07/16 00:27:24;;;;;;;31.35;6.40;;;;;;;14.03;100.00;98340.69;5062730;28;20052;-58
2022/07/16 00:29:49;;;;;;;39.83;6.72;;;;;;;13.91;100.00;98340.44;5063135;28;20028;-60
2022/07/16 00:32:15;;;;;;;26.80;6.00;;;;;;;13.74;100.00;98341.25;5062433;28;20040;-58
2022/07/16 00:34:41;;;;;;;32.05;6.03;;;;;;;14.31;100.00;98339.28;5063553;28;20032;-58
2022/07/16 00:37:06;;;;;;;34.25;6.13;;;;;;;14.07;100.00;98342.22;5061841;28;20041;-58
2022/07/16 00:39:32;;;;;;;26.58;6.43;;;;;;;13.23;100.00;98339.25;5064041;28;20028;-60
2022/07/16 00:41:57;;;;;;;24.30;5.80;;;;;;;13.56;100.00;98348.22;5062435;28;20109;-58
2022/07/16 00:44:22;;;;;;;27.42;5.93;;;;;;;13.43;100.00;98342.72;5063811;28;20028;-59
2022/07/16 00:46:49;;;;;;;27.70;5.65;;;;;;;13.56;100.00;98349.06;5062782;28;20044;-58
2022/07/16 00:49:16;;;;;;;30.83;6.07;;;;;;;13.22;100.00;98350.63;5062990;28;20020;-59
2022/07/16 00:51:44;;;;;;;35.42;6.40;;;;;;;13.35;100.00;98350.09;5062370;28;20037;-58
2022/07/16 00:54:10;;;;;;;30.98;5.97;;;;;;;13.33;100.00;98347.56;5064244;28;20036;-59
2022/07/16 00:56:36;;;;;;;26.77;5.88;;;;;;;13.04;100.00;98349.69;5063422;28;20032;-59
2022/07/16 00:59:01;;;;;;;27.13;6.05;;;;;;;13.00;100.00;98349.91;5062872;28;20028;-58
2022/07/16 01:01:27;;;;;;;36.55;7.07;;;;;;;12.92;100.00;98358.97;5063515;28;20440;-59
2022/07/16 01:03:52;;;;;;;32.95;6.50;;;;;;;12.90;100.00;98359.94;5063562;28;20085;-58
2022/07/16 01:06:18;;;;;;;32.50;6.68;;;;;;;12.85;100.00;98357.53;5062454;28;20711;-59
2022/07/16 01:08:46;;;;;;;31.10;7.15;;;;;;;12.79;100.00;98356.94;5062723;28;20568;-58
2022/07/16 01:11:14;;;;;;;31.50;6.25;;;;;;;12.88;100.00;98357.41;5061906;28;20155;-59
2022/07/16 01:13:41;;;;;;;36.85;7.25;;;;;;;13.02;100.00;98358.56;5064074;28;20051;-59
2022/07/16 01:16:08;;;;;;;23.20;5.63;;;;;;;12.99;100.00;98358.69;5062487;28;20710;-60
2022/07/16 01:18:35;;;;;;;32.70;6.75;;;;;;;12.80;100.00;98359.50;5062165;28;20580;-60
2022/07/16 01:21:01;;;;;;;27.30;5.97;;;;;;;12.83;100.00;98358.50;5061815;28;20032;-60
2022/07/16 01:23:26;;;;;;;28.05;6.38;;;;;;;12.68;100.00;98360.03;5062633;28;20641;-58
2022/07/16 01:25:52;;;;;;;32.85;6.55;;;;;;;12.65;100.00;98371.50;5062289;28;20068;-58
2022/07/16 01:28:18;;;;;;;33.67;6.63;;;;;;;12.43;100.00;98374.19;5061746;28;20024;-59
2022/07/16 01:30:45;;;;;;;41.25;7.05;;;;;;;12.49;100.00;98362.59;5061067;28;20042;-58
2022/07/16 01:33:22;;;;;;;33.80;6.80;;;;;;;12.38;100.00;98370.91;5061852;28;20389;-59
2022/07/16 01:35:49;;;;;;;30.90;6.38;;;;;;;12.34;100.00;98369.34;5062110;28;20107;-58
2022/07/16 01:38:14;;;;;;;29.00;6.45;;;;;;;12.39;100.00;98370.00;5061944;28;20043;-57
2022/07/16 01:40:39;;;;;;;35.80;6.57;;;;;;;12.64;100.00;98363.72;5061648;28;20032;-58
2022/07/16 01:43:16;;;;;;;30.67;6.18;;;;;;;12.48;100.00;98369.63;5062160;28;20028;-59
2022/07/16 01:45:42;;;;;;;35.47;6.47;;;;;;;12.93;100.00;98365.88;5060107;28;20032;-59
2022/07/16 01:48:07;;;;;;;24.58;5.18;;;;;;;13.14;100.00;98365.88;5061596;28;20067;-58
2022/07/16 01:50:33;;;;;;;24.52;5.93;;;;;;;12.33;100.00;98370.25;5061665;28;20135;-60
2022/07/16 01:52:58;;;;;;;27.38;6.22;;;;;;;12.21;100.00;98373.41;5063365;28;20028;-59
2022/07/16 01:55:24;;;;;;;23.02;6.00;;;;;;;12.14;100.00;98371.03;5061961;28;20664;-58
2022/07/16 01:57:49;;;;;;;27.27;5.90;;;;;;;12.17;100.00;98377.03;5062854;28;20098;-59
2022/07/16 02:00:14;;;;;;;30.80;6.32;;;;;;;12.18;100.00;98371.75;5061226;28;20127;-58
2022/07/16 02:02:40;;;;;;;28.08;6.30;;;;;;;12.06;100.00;98369.66;5062455;28;20020;-59
2022/07/16 02:05:06;;;;;;;25.70;5.93;;;;;;;12.02;100.00;98366.31;5061747;28;20102;-60
2022/07/16 02:07:31;;;;;;;22.77;5.88;;;;;;;11.94;100.00;98360.53;5061524;28;20126;-58
2022/07/16 02:09:56;;;;;;;40.53;6.95;;;;;;;12.22;100.00;98356.78;5061540;28;20554;-60
2022/07/16 02:12:22;;;;;;;26.48;6.10;;;;;;;12.13;100.00;98353.66;5061164;28;20033;-61
2022/07/16 02:14:47;;;;;;;31.38;6.55;;;;;;;12.01;100.00;98359.38;5061846;28;20055;-61
2022/07/16 02:17:13;;;;;;;36.47;7.32;;;;;;;12.03;100.00;98368.00;5060502;28;20051;-59
2022/07/16 02:19:38;;;;;;;25.10;6.10;;;;;;;12.13;100.00;98361.50;5061193;28;20052;-59
2022/07/16 02:22:04;;;;;;;21.48;6.03;;;;;;;11.97;100.00;98373.50;5062462;28;20678;-59
2022/07/16 02:24:29;;;;;;;26.42;5.75;;;;;;;12.09;100.00;98359.06;5061283;28;20032;-60
2022/07/16 02:26:55;;;;;;;29.80;5.70;;;;;;;12.31;100.00;98357.25;5060848;28;20044;-59
2022/07/16 02:29:20;;;;;;;33.65;6.47;;;;;;;12.48;100.00;98356.53;5060855;28;20131;-60
2022/07/16 02:31:45;;;;;;;32.75;6.40;;;;;;;11.94;100.00;98364.00;5060734;28;20099;-59
2022/07/16 02:34:11;;;;;;;30.52;6.43;;;;;;;12.03;100.00;98362.78;5061677;28;20108;-57
2022/07/16 02:36:36;;;;;;;28.40;6.13;;;;;;;11.54;100.00;98360.34;5060721;28;20060;-57
2022/07/16 02:39:02;;;;;;;33.47;6.65;;;;;;;11.41;100.00;98371.31;5060791;28;20055;-56
2022/07/16 02:41:27;;;;;;;30.70;6.57;;;;;;;11.40;100.00;98370.47;5059894;28;20095;-57
2022/07/16 02:43:53;;;;;;;20.40;5.40;;;;;;;11.50;100.00;98368.34;5061507;28;20020;-60
2022/07/16 02:46:18;;;;;;;32.47;6.78;;;;;;;11.10;100.00;98370.72;5061413;28;20043;-60
2022/07/16 02:48:43;;;;;;;28.42;6.47;;;;;;;11.08;100.00;98371.69;5061007;28;20103;-57
2022/07/16 02:51:09;;;;;;;33.08;6.38;;;;;;;11.21;100.00;98380.75;5060209;28;20611;-59
2022/07/16 02:53:34;;;;;;;31.83;7.10;;;;;;;11.12;100.00;98378.47;5061424;28;20075;-60
2022/07/16 02:56:00;;;;;;;30.85;6.70;;;;;;;11.22;100.00;98373.78;5060934;28;20135;-59
2022/07/16 02:58:25;;;;;;;24.00;6.32;;;;;;;11.24;100.00;98371.97;5060985;28;20054;-59
2022/07/16 03:00:51;;;;;;;32.95;6.75;;;;;;;11.37;100.00;98370.59;5060620;28;20060;-58
2022/07/16 03:03:16;;;;;;;25.05;6.25;;;;;;;11.33;100.00;98372.47;5060643;28;20024;-58
2022/07/16 03:05:41;;;;;;;33.33;7.00;;;;;;;11.29;100.00;98367.44;5060546;28;20577;-60
2022/07/16 03:08:07;;;;;;;26.08;5.80;;;;;;;11.56;100.00;98363.75;5061080;28;20032;-59
2022/07/16 03:10:32;;;;;;;28.23;5.70;;;;;;;12.20;100.00;98366.47;5060411;28;20032;-60
2022/07/16 03:12:57;;;;;;;31.23;6.20;;;;;;;11.66;100.00;98361.63;5061214;28;20032;-60
2022/07/16 03:15:23;;;;;;;28.20;5.50;;;;;;;11.50;100.00;98368.34;5060954;28;20486;-60
2022/07/16 03:17:48;;;;;;;24.40;5.78;;;;;;;10.99;100.00;98373.75;5059458;28;20407;-58
2022/07/16 03:20:14;;;;;;;31.08;6.40;;;;;;;10.96;100.00;98373.00;5060333;28;20025;-60
2022/07/16 03:22:46;;;;;;;31.08;6.25;;;;;;;11.25;100.00;98379.75;5061243;28;20032;-59
2022/07/16 03:25:11;;;;;;;;;;;;;;;11.21;100.00;98385.97;5061878;28;20027;-59
2022/07/16 03:27:36;;;;;;;30.88;5.93;;;;;;;11.08;100.00;98382.13;5061386;28;19916;-58
2022/07/16 03:30:02;;;;;;;45.92;8.02;;;;;;;11.15;100.00;98383.59;5059961;28;20033;-58
2022/07/16 03:32:27;;;;;;;32.38;6.85;;;;;;;11.19;100.00;98380.84;5060229;28;20040;-57
2022/07/16 03:34:53;;;;;;;24.75;6.07;;;;;;;11.25;100.00;98392.81;5061763;28;20028;-59
2022/07/16 03:37:18;;;;;;;33.75;6.65;;;;;;;10.99;100.00;98393.75;5060152;28;20474;-59
2022/07/16 03:39:43;;;;;;;29.33;6.57;;;;;;;10.95;100.00;98393.03;5060939;28;21055;-59
2022/07/16 03:42:09;;;;;;;34.40;6.82;;;;;;;11.10;100.00;98390.75;5059797;28;20076;-60
2022/07/16 03:44:34;;;;;;;32.08;6.47;;;;;;;11.18;100.00;98399.16;5060743;28;20020;-61
2022/07/16 03:47:00;;;;;;;26.08;6.03;;;;;;;10.94;100.00;98399.16;5059751;28;20098;-61
2022/07/16 03:49:25;;;;;;;25.13;6.43;;;;;;;10.78;100.00;98411.03;5060015;28;20024;-61
2022/07/16 03:51:50;;;;;;;30.10;6.60;;;;;;;10.52;100.00;98398.91;5063294;28;20066;-60
2022/07/16 03:54:16;;;;;;;21.88;6.07;;;;;;;10.63;100.00;98406.38;5064588;28;20115;-59
2022/07/16 03:56:41;;;;;;;29.33;6.03;;;;;;;10.70;100.00;98407.84;5064568;28;20041;-59
2022/07/16 03:59:07;;;;;;;31.52;7.10;;;;;;;10.84;100.00;98402.97;5064608;28;20042;-60
2022/07/16 04:01:32;;;;;;;25.05;6.20;;;;;;;11.09;100.00;98404.72;5063585;28;20039;-59
2022/07/16 04:03:58;;;;;;;24.02;5.72;;;;;;;10.89;100.00;98398.47;5064278;28;20043;-60
2022/07/16 04:06:23;;;;;;;29.73;6.13;;;;;;;11.05;100.00;98403.13;5064414;28;20040;-58
2022/07/16 04:08:49;;;;;;;28.15;6.18;;;;;;;11.26;100.00;98401.47;5064298;28;20028;-61
2022/07/16 04:11:14;;;;;;;23.48;6.18;;;;;;;11.09;100.00;98405.56;5063171;28;20533;-60
2022/07/16 04:13:40;;;;;;;29.80;6.65;;;;;;;11.27;100.00;98411.88;5063716;28;20027;-61
2022/07/16 04:16:06;;;;;;;23.35;5.82;;;;;;;11.34;100.00;98413.34;5065424;28;20051;-58
2022/07/16 04:18:32;;;;;;;29.42;5.90;;;;;;;11.37;100.00;98414.97;5062909;28;20070;-58
2022/07/16 04:20:57;;;;;;;23.92;5.60;;;;;;;11.52;100.00;98424.88;5063586;28;20045;-58
2022/07/16 04:23:23;;;;;;;27.52;5.88;;;;;;;11.52;100.00;98418.78;5063618;28;20028;-58
2022/07/16 04:25:48;;;;;;;26.02;6.10;;;;;;;11.82;100.00;98414.13;5063550;28;20033;-59
2022/07/16 04:28:13;;;;;;;29.67;6.20;;;;;;;12.00;100.00;98409.94;5063272;28;20036;-58
2022/07/16 04:30:39;;;;;;;27.10;6.20;;;;;;;12.13;100.00;98412.91;5062356;28;20041;-59
2022/07/16 04:33:04;;;;;;;26.02;6.30;;;;;;;12.42;100.00;98411.72;5064713;28;20056;-59
2022/07/16 04:35:30;;;;;;;24.42;6.03;;;;;;;12.53;100.00;98416.50;5051781;28;20028;-58
2022/07/16 04:37:55;;;;;;;25.38;6.18;;;;;;;12.70;100.00;98410.53;5063339;28;20016;-61
2022/07/16 04:40:20;;;;;;;26.27;5.85;;;;;;;12.68;100.00;98409.75;5063370;28;20574;-59
2022/07/16 04:42:46;;;;;;;28.48;6.35;;;;;;;12.80;100.00;98404.00;5063357;28;20016;-60
2022/07/16 04:45:12;;;;;;;23.90;5.57;;;;;;;13.20;100.00;98394.38;5063191;28;20201;-60
2022/07/16 04:47:39;;;;;;;22.33;5.65;;;;;;;12.95;100.00;98401.63;5063252;28;20128;-60
2022/07/16 04:50:05;;;;;;;31.45;6.45;;;;;;;13.20;100.00;98410.09;5062687;28;20283;-60
2022/07/16 04:52:30;;;;;;;32.92;6.78;;;;;;;13.49;100.00;98407.94;5063027;28;20028;-61
2022/07/16 04:54:56;;;;;;;25.60;6.82;;;;;;;13.74;100.00;98402.41;5063252;28;20075;-60
2022/07/16 04:57:22;;;;;;;27.50;6.45;;;;;;;13.75;100.00;98400.63;5062559;28;20040;-61
2022/07/16 04:59:47;;;;;;;19.20;5.22;;;;;;;13.96;100.00;98399.59;5063368;28;20105;-60
2022/07/16 05:04:57;;;;;;;20.58;5.28;;;;;;;14.96;100.00;98399.00;5063395;28;20079;-58
2022/07/16 05:07:23;;;;;;;24.27;6.28;;;;;;;15.36;100.00;98394.25;5061080;28;20033;-58
2022/07/16 05:09:48;;;;;;;26.73;6.28;;;;;;;16.88;100.00;98397.94;5062428;28;20040;-59
2022/07/16 05:12:14;;;;;;;23.65;5.68;;;;;;;17.23;100.00;98387.03;5062235;28;20040;-59
2022/07/16 05:14:39;;;;;;;18.98;5.10;;;;;;;17.40;100.00;98384.16;5063645;28;20044;-60
2022/07/16 05:17:04;;;;;;;24.75;5.55;;;;;;;19.59;100.00;98388.06;5062485;28;20033;-59
2022/07/16 05:19:30;;;;;;;17.42;4.70;;;;;;;20.10;100.00;98392.38;5062989;28;20032;-59
2022/07/16 05:21:55;;;;;;;15.52;4.75;;;;;;;18.76;100.00;98386.75;5063504;28;20246;-59
2022/07/16 05:24:21;;;;;;;20.05;5.18;;;;;;;18.29;100.00;98382.91;5062277;28;20068;-59
2022/07/16 05:26:46;;;;;;;17.08;5.03;;;;;;;17.92;100.00;98388.81;5062685;28;20178;-58
2022/07/16 05:29:11;;;;;;;18.85;5.13;;;;;;;16.03;100.00;98399.34;5063557;28;20469;-59
2022/07/16 05:31:37;;;;;;;15.77;4.90;;;;;;;16.01;100.00;98396.84;5062220;28;20044;-60
2022/07/16 05:34:02;;;;;;;31.15;6.00;;;;;;;16.58;100.00;98396.16;5062917;28;20481;-59
2022/07/16 05:36:27;;;;;;;23.58;6.00;;;;;;;16.33;100.00;98402.84;5062420;28;20063;-59
2022/07/16 05:38:53;;;;;;;21.27;5.38;;;;;;;17.28;100.00;98400.78;5062259;28;20024;-57
2022/07/16 05:41:18;;;;;;;21.00;5.50;;;;;;;18.41;100.00;98391.78;5061066;28;20372;-59
2022/07/16 05:43:44;;;;;;;21.60;6.22;;;;;;;19.21;100.00;98391.66;5062616;28;20040;-60
2022/07/16 05:46:09;;;;;;;16.77;5.07;;;;;;;21.91;93.94;98388.16;5062527;28;20051;-59
2022/07/16 05:48:34;;;;;;;17.20;4.93;;;;;;;24.24;73.91;98385.00;5061962;28;20033;-60
2022/07/16 05:51:00;;;;;;;16.10;4.68;;;;;;;26.28;55.83;98387.94;5061331;28;20040;-62
2022/07/16 05:53:25;;;;;;;18.35;4.40;;;;;;;26.22;56.60;98394.75;5062518;28;20120;-60
2022/07/16 05:55:51;;;;;;;18.95;4.93;;;;;;;24.56;58.04;98394.59;5061691;28;20028;-57
2022/07/16 05:58:16;;;;;;;12.15;4.20;;;;;;;26.65;55.63;98395.81;5062610;28;20449;-57
2022/07/16 06:00:42;;;;;;;15.95;4.50;;;;;;;27.43;49.68;98397.66;5059716;28;20072;-58
2022/07/16 06:03:07;;;;;;;14.65;4.25;;;;;;;27.33;47.23;98394.25;5058022;28;20115;-58
2022/07/16 06:05:33;;;;;;;13.90;4.35;;;;;;;27.87;45.72;98397.47;5058996;28;20383;-59
2022/07/16 06:07:58;;;;;;;12.65;3.95;;;;;;;27.93;45.93;98411.25;5059755;28;20021;-59
2022/07/16 06:10:24;;;;;;;15.52;4.63;;;;;;;25.51;46.31;98404.31;5056858;28;20794;-57
2022/07/16 06:12:49;;;;;;;17.85;4.72;;;;;;;27.45;43.97;98398.31;5056615;28;20024;-58
2022/07/16 06:15:15;;;;;;;11.20;3.78;;;;;;;28.92;39.62;98402.28;5059669;28;20585;-58
2022/07/16 06:17:40;;;;;;;14.02;3.80;;;;;;;26.78;41.82;98405.25;5060886;28;20024;-59
2022/07/16 06:20:07;;;;;;;19.17;5.07;;;;;;;28.80;40.39;98403.63;5060227;28;20028;-60
2022/07/16 06:22:33;;;;;;;12.65;3.92;;;;;;;29.80;39.12;98405.91;5061876;28;20028;-58
2022/07/16 06:24:59;;;;;;;11.00;3.85;;;;;;;30.15;38.59;98403.69;5061946;28;20459;-58
2022/07/16 06:27:24;;;;;;;11.93;3.72;;;;;;;30.79;36.88;98411.47;5059376;28;20033;-58
2022/07/16 06:29:49;;;;;;;16.77;4.18;;;;;;;29.94;37.92;98409.69;5057645;28;20025;-57
2022/07/16 06:32:15;;;;;;;9.40;3.28;;;;;;;31.96;34.84;98410.81;5059487;28;20108;-58
2022/07/16 06:34:40;;;;;;;11.80;3.80;;;;;;;27.88;38.67;98417.06;5061276;28;20451;-58
2022/07/16 06:37:06;;;;;;;11.77;3.88;;;;;;;30.91;36.17;98420.78;5061180;28;20033;-59
2022/07/16 06:39:31;;;;;;;12.73;3.88;;;;;;;28.46;38.48;98407.31;5060201;28;20032;-58
2022/07/16 06:41:58;;;;;;;8.85;3.67;;;;;;;26.79;42.06;98413.13;5060882;28;20032;-61
2022/07/16 06:44:23;;;;;;;8.30;3.42;;;;;;;30.11;37.72;98419.34;5061710;28;20039;-59
2022/07/16 06:46:48;;;;;;;8.57;3.70;;;;;;;28.24;40.43;98414.16;5060465;28;20037;-59
2022/07/16 06:49:14;;;;;;;13.98;4.00;;;;;;;27.88;40.42;98425.97;5060173;28;20025;-59
2022/07/16 06:51:40;;;;;;;11.02;3.45;;;;;;;31.54;37.08;98419.66;5059846;28;20127;-59
2022/07/16 06:54:06;;;;;;;11.45;3.88;;;;;;;31.07;36.24;98418.97;5057509;28;20028;-60
2022/07/16 06:56:31;;;;;;;9.65;3.55;;;;;;;30.26;36.34;98421.28;5058197;28;20093;-59
2022/07/16 06:58:57;;;;;;;9.27;3.50;;;;;;;30.94;35.95;98425.81;5059702;28;20070;-60
2022/07/16 07:01:23;;;;;;;11.32;3.10;;;;;;;30.31;35.79;98419.72;5059499;28;20048;-60
2022/07/16 07:03:48;;;;;;;9.82;3.50;;;;;;;30.74;35.88;98425.47;5061086;28;20040;-60
2022/07/16 07:06:13;;;;;;;9.52;3.33;;;;;;;28.29;37.33;98427.06;5059269;28;20614;-62
2022/07/16 07:08:39;;;;;;;9.77;3.42;;;;;;;29.29;37.11;98429.59;5060461;28;20027;-59
2022/07/16 07:11:04;;;;;;;8.98;2.90;;;;;;;32.06;34.19;98424.88;5059551;28;20050;-59
2022/07/16 07:13:30;;;;;;;10.05;3.50;;;;;;;30.64;35.50;98434.81;5061360;28;20020;-59
2022/07/16 07:15:57;;;;;;;8.43;3.05;;;;;;;31.95;33.05;98427.22;5060676;28;20036;-59
2022/07/16 07:18:23;;;;;;;9.80;3.20;;;;;;;31.32;34.29;98427.59;5059779;28;20025;-60
2022/07/16 07:20:49;;;;;;;9.65;3.13;;;;;;;32.81;33.70;98438.94;5058991;28;20043;-60
2022/07/16 07:23:14;;;;;;;9.52;3.20;;;;;;;32.51;32.45;98429.28;5058456;28;20032;-60
2022/07/16 07:25:39;;;;;;;9.30;3.10;;;;;;;33.58;30.81;98429.09;5057877;28;20029;-59
2022/07/16 07:28:05;;;;;;;9.18;3.17;;;;;;;30.47;33.52;98423.34;5058952;28;20028;-60
2022/07/16 07:30:30;;;;;;;9.32;2.60;;;;;;;31.69;32.14;98418.63;5057662;28;20464;-61
2022/07/16 07:32:56;;;;;;;8.80;2.70;;;;;;;32.88;29.96;98416.53;5059753;28;20052;-59
2022/07/16 07:35:21;;;;;;;6.75;2.58;;;;;;;30.49;33.12;98411.38;5059574;28;20024;-59
2022/07/16 07:37:47;;;;;;;8.00;2.80;;;;;;;33.23;31.98;98410.19;5059528;28;20032;-59
2022/07/16 07:40:13;;;;;;;14.40;3.67;;;;;;;33.80;29.07;98404.63;5058574;28;20518;-59
2022/07/16 07:42:38;;;;;;;11.02;2.97;;;;;;;30.82;32.47;98404.88;5060205;28;20111;-61
2022/07/16 07:45:05;;;;;;;8.93;3.15;;;;;;;31.10;32.25;98397.03;5060547;28;20127;-59
2022/07/16 07:47:31;;;;;;;8.43;2.85;;;;;;;32.33;32.10;98395.50;5059989;28;20039;-59
2022/07/16 07:49:57;;;;;;;13.35;3.88;;;;;;;35.41;28.49;98394.78;5059275;28;20074;-62
2022/07/16 07:52:23;;;;;;;9.57;2.85;;;;;;;33.52;29.62;98400.13;5058698;28;20040;-60
2022/07/16 07:54:48;;;;;;;9.23;3.13;;;;;;;31.68;31.38;98387.28;5058063;28;20028;-59
2022/07/16 07:57:13;;;;;;;8.70;2.50;;;;;;;31.64;30.46;98388.69;5058653;28;20025;-63
2022/07/16 07:59:39;;;;;;;7.00;2.42;;;;;;;32.74;29.01;98400.22;5058297;28;20088;-60
2022/07/16 08:02:04;;;;;;;7.90;2.67;;;;;;;32.91;28.07;98399.94;5057807;28;20046;-63
2022/07/16 08:04:30;;;;;;;9.10;2.40;;;;;;;31.81;29.33;98399.25;5061260;28;20982;-62
2022/07/16 08:06:56;;;;;;;8.57;2.30;;;;;;;33.25;28.36;98401.00;5059320;28;20501;-61
2022/07/16 08:09:21;;;;;;;6.63;2.17;;;;;;;32.80;28.14;98404.84;5059936;28;20024;-61
2022/07/16 08:11:46;;;;;;;8.32;2.35;;;;;;;33.28;27.86;98411.44;5059270;28;20047;-62
2022/07/16 08:14:12;;;;;;;8.00;2.53;;;;;;;32.40;28.04;98399.06;5059723;28;20398;-62
2022/07/16 08:16:37;;;;;;;7.45;2.45;;;;;;;34.01;27.17;98392.84;5059951;28;20036;-62
2022/07/16 08:19:03;;;;;;;7.25;2.30;;;;;;;32.54;29.17;98394.63;5059605;28;20036;-60
2022/07/16 08:21:28;;;;;;;7.93;2.20;;;;;;;32.78;28.38;98396.09;5058460;28;20470;-60
2022/07/16 08:26:38;;;;;;;7.35;2.22;;;;;;;32.33;28.64;98387.41;5056606;28;20143;-60
2022/07/16 08:29:03;;;;;;;7.85;2.25;;;;;;;31.68;28.91;98381.88;5058256;28;20482;-61
2022/07/16 08:31:28;;;;;;;7.82;2.30;;;;;;;34.17;27.38;98397.91;5058718;28;20041;-60
2022/07/16 08:33:54;;;;;;;7.05;2.15;;;;;;;31.40;29.92;98387.09;5059815;28;20032;-60
2022/07/16 08:36:19;;;;;;;7.45;2.50;;;;;;;33.05;28.53;98396.31;5060655;28;20040;-61
2022/07/16 08:38:45;;;;;;;7.05;2.55;;;;;;;30.60;30.37;98398.50;5063038;28;20024;-61
2022/07/16 08:41:10;;;;;;;8.95;2.55;;;;;;;31.47;28.96;98381.81;5062554;28;20408;-61
2022/07/16 08:43:37;;;;;;;10.60;2.88;;;;;;;30.85;30.92;98380.28;5063512;28;20036;-60
2022/07/16 08:46:03;;;;;;;11.13;2.75;;;;;;;31.97;29.58;98382.84;5062894;28;20106;-60
2022/07/16 08:48:30;;;;;;;13.15;2.80;;;;;;;32.37;28.52;98396.78;5062406;28;20032;-58
2022/07/16 08:50:58;;;;;;;13.30;3.13;;;;;;;31.88;29.23;98386.69;5062787;28;20032;-58
2022/07/16 08:53:24;;;;;;;9.00;2.40;;;;;;;31.81;29.61;98393.84;5060897;28;20125;-61
2022/07/16 08:55:52;;;;;;;13.05;3.20;;;;;;;32.33;29.27;98384.69;5059997;28;20036;-61
2022/07/16 08:58:18;;;;;;;10.25;2.67;;;;;;;32.03;29.49;98392.88;5062027;28;20108;-60
2022/07/16 09:00:45;;;;;;;13.52;3.10;;;;;;;32.50;29.13;98392.50;5061630;28;20139;-59
2022/07/16 09:03:14;;;;;;;10.30;2.75;;;;;;;32.76;29.18;98387.38;5062275;28;20608;-59
2022/07/16 09:05:40;;;;;;;9.98;2.55;;;;;;;31.23;30.34;98386.47;5062378;28;20039;-58
2022/07/16 09:08:06;;;;;;;10.82;2.53;;;;;;;31.53;29.68;98391.84;5063161;28;20055;-59
2022/07/16 09:10:37;;;;;;;9.82;2.40;;;;;;;33.52;26.88;98397.41;5061925;28;20141;-61
2022/07/16 09:13:03;;;;;;;9.75;2.60;;;;;;;32.91;27.25;98397.25;5062103;28;20035;-59
2022/07/16 09:15:35;;;;;;;12.00;2.88;;;;;;;31.86;28.16;98386.03;5061947;28;20036;-61
2022/07/16 09:18:13;;;;;;;14.95;3.53;;;;;;;31.96;28.13;98389.25;5061242;28;20025;-59
2022/07/16 09:20:45;;;;;;;52.95;32.83;;;;;;;31.86;29.23;98392.25;5061698;28;20124;-60
2022/07/16 09:23:17;;;;;;;22.45;12.05;;;;;;;30.08;30.15;98387.41;5063464;28;20039;-60
2022/07/16 09:25:48;;;;;;;65.93;38.45;;;;;;;31.44;30.09;98390.25;5062149;28;20039;-60
2022/07/16 09:28:13;;;;;;;38.90;21.65;;;;;;;32.70;29.29;98393.56;5061427;28;20502;-63
2022/07/16 09:30:39;;;;;;;43.28;27.67;;;;;;;32.76;28.38;98398.16;5049393;28;20568;-62
2022/07/16 09:33:17;;;;;;;21.45;11.07;;;;;;;30.26;29.58;98397.91;5056759;28;20025;-61
2022/07/16 09:35:43;;;;;;;16.77;5.97;;;;;;;32.55;27.73;98395.47;5058727;28;20051;-62
2022/07/16 09:38:10;;;;;;;41.75;19.70;;;;;;;29.48;31.47;98393.41;5059729;28;20052;-61
2022/07/16 09:40:39;;;;;;;26.05;11.48;;;;;;;29.48;31.13;98390.72;5058151;28;20079;-62
2022/07/16 09:43:19;;;;;;;20.02;4.55;;;;;;;31.81;28.88;98393.84;5058123;28;20029;-60
2022/07/16 09:45:48;;;;;;;14.93;3.47;;;;;;;28.94;31.44;98389.50;5056289;28;20036;-58
2022/07/16 09:48:25;;;;;;;17.83;3.50;;;;;;;27.80;33.63;98387.56;5054638;28;20030;-61
2022/07/16 09:50:52;;;;;;;32.50;11.98;;;;;;;27.74;34.87;98396.28;5055475;28;20885;-60
2022/07/16 09:53:23;;;;;;;18.92;7.68;;;;;;;29.21;31.87;98395.53;5058004;28;20024;-64
2022/07/16 09:56:08;;;;;;;14.40;4.13;;;;;;;29.42;32.40;98390.41;5059041;28;20135;-61
2022/07/16 09:58:36;;;;;;;19.88;4.00;;;;;;;29.89;30.87;98387.91;5058022;28;20149;-63
2022/07/16 10:01:02;;;;;;;22.88;4.63;;;;;;;30.23;30.91;98378.56;5056113;28;20648;-61
2022/07/16 10:03:29;;;;;;;13.70;3.05;;;;;;;29.99;31.60;98375.03;5057869;28;20023;-64
2022/07/16 10:05:55;;;;;;;15.38;4.85;;;;;;;29.66;30.97;98382.44;5059229;28;20733;-64
2022/07/16 10:08:21;;;;;;;10.48;2.47;;;;;;;26.77;33.98;98377.66;5058636;28;20017;-64
2022/07/16 10:10:48;;;;;;;12.70;4.15;;;;;;;27.22;34.93;98375.75;5057535;28;20032;-62
2022/07/16 10:13:15;;;;;;;17.50;4.32;;;;;;;27.22;35.36;98375.75;5058666;28;20031;-63
2022/07/16 10:15:41;;;;;;;14.88;3.90;;;;;;;27.24;35.09;98374.59;5056404;28;20528;-62
2022/07/16 10:18:36;;;;;;;22.13;5.07;;;;;;;27.87;34.82;98370.66;5056969;28;20399;-61
2022/07/16 10:21:12;;;;;;;13.00;3.33;;;;;;;28.06;34.36;98369.53;5059126;28;20032;-61
2022/07/16 10:23:40;;;;;;;20.85;4.38;;;;;;;27.15;36.08;98364.84;5060337;28;20039;-61
2022/07/16 10:26:17;;;;;;;21.67;4.55;;;;;;;26.91;36.27;98378.94;5060106;28;20490;-61
2022/07/16 10:28:56;;;;;;;17.33;3.60;;;;;;;26.60;35.25;98376.72;5058236;28;20146;-60
2022/07/16 10:34:36;;;;;;;15.60;3.33;;;;;;;25.93;36.82;98371.75;5060070;28;20500;-61
2022/07/16 10:37:03;;;;;;;16.40;3.53;;;;;;;26.31;36.11;98367.09;5059168;28;20024;-61
2022/07/16 10:39:29;;;;;;;18.45;3.65;;;;;;;26.97;36.65;98361.41;5059353;28;20048;-60
2022/07/16 10:42:03;;;;;;;20.92;4.10;;;;;;;26.41;37.66;98361.63;5058796;28;20128;-60
2022/07/16 10:44:43;;;;;;;23.75;4.38;;;;;;;26.39;36.65;98362.81;5058313;28;20025;-60
2022/07/16 10:47:08;;;;;;;18.65;3.95;;;;;;;27.23;35.84;98370.25;5071504;28;20359;-62
2022/07/16 10:49:33;;;;;;;15.65;3.13;;;;;;;25.49;35.48;98371.56;5057796;28;20792;-62
2022/07/16 10:52:10;;;;;;;16.08;3.13;;;;;;;26.87;34.46;98366.84;5057010;28;20152;-63
2022/07/16 10:54:37;;;;;;;26.67;4.40;;;;;;;27.34;34.55;98368.31;5056935;28;20070;-60
2022/07/16 10:57:06;;;;;;;22.88;4.35;;;;;;;26.47;36.10;98373.59;5057255;28;20094;-58
2022/07/16 10:59:43;;;;;;;25.27;4.28;;;;;;;26.72;35.96;98362.09;5056608;28;20390;-58
2022/07/16 11:02:10;;;;;;;15.05;3.30;;;;;;;27.09;35.44;98360.97;5055827;28;20032;-61
2022/07/16 11:04:36;;;;;;;16.75;3.67;;;;;;;27.16;37.63;98371.03;5058006;28;20143;-62
2022/07/16 11:07:09;;;;;;;17.58;3.40;;;;;;;27.44;35.09;98379.72;5057079;28;20040;-61
2022/07/16 11:09:44;;;;;;;19.23;3.65;;;;;;;28.12;34.82;98381.44;5056319;28;20036;-65
2022/07/16 11:12:09;;;;;;;18.35;3.53;;;;;;;27.36;34.36;98374.34;5053512;28;20116;-65
2022/07/16 11:14:35;;;;;;;18.80;3.65;;;;;;;27.64;35.35;98380.31;5055608;28;20414;-65
2022/07/16 11:17:00;;;;;;;23.50;4.10;;;;;;;27.32;34.95;98376.50;5055407;28;20158;-62
2022/07/16 11:19:26;;;;;;;18.92;3.55;;;;;;;26.91;36.14;98378.94;5057673;28;20071;-62
2022/07/16 11:21:59;;;;;;;20.05;3.92;;;;;;;26.72;35.79;98377.28;5056631;28;20040;-63
2022/07/16 11:24:26;;;;;;;14.52;2.90;;;;;;;25.86;36.97;98381.34;5057513;28;20112;-63
2022/07/16 11:26:53;;;;;;;21.20;3.70;;;;;;;28.03;35.25;98371.72;5058314;28;20476;-62
2022/07/16 11:29:21;;;;;;;15.43;3.22;;;;;;;27.58;33.68;98373.75;5056890;28;20078;-64